sensor_id;sensor_type;location;lat;lon;timestamp;pressure;altitude;pressure_sealevel;temperature;humidity
75219;BME280;63801;49.414;19.474;2023-04-25T00:00:53;92710.72;;;9.47;76.47
75219;BME280;63801;49.414;19.474;2023-04-25T00:02:54;92701.13;;;9.46;76.39
75219;BME280;63801;49.414;19.474;2023-04-25T00:04:56;92708.78;;;9.44;76.42
75219;BME280;63801;49.414;19.474;2023-04-25T00:06:58;92717.63;;;9.45;76.28
75219;BME280;63801;49.414;19.474;2023-04-25T00:09:02;92711.81;;;9.43;76.55
75219;BME280;63801;49.414;19.474;2023-04-25T00:11:03;92711.13;;;9.46;76.35
75219;BME280;63801;49.414;19.474;2023-04-25T00:13:04;92703.72;;;9.39;76.35
75219;BME280;63801;49.414;19.474;2023-04-25T00:15:05;92704.91;;;9.42;76.13
75219;BME280;63801;49.414;19.474;2023-04-25T00:17:05;92707.97;;;9.40;76.10
75219;BME280;63801;49.414;19.474;2023-04-25T00:19:06;92719.16;;;9.42;76.42
75219;BME280;63801;49.414;19.474;2023-04-25T00:21:07;92695.63;;;9.36;76.27
75219;BME280;63801;49.414;19.474;2023-04-25T00:23:08;92716.00;;;9.37;76.62
75219;BME280;63801;49.414;19.474;2023-04-25T00:25:08;92707.16;;;9.36;76.39
75219;BME280;63801;49.414;19.474;2023-04-25T00:27:09;92705.94;;;9.34;76.20
75219;BME280;63801;49.414;19.474;2023-04-25T00:29:09;92713.66;;;9.35;76.42
75219;BME280;63801;49.414;19.474;2023-04-25T00:31:09;92713.31;;;9.37;76.50
75219;BME280;63801;49.414;19.474;2023-04-25T00:33:10;92718.66;;;9.33;76.35
75219;BME280;63801;49.414;19.474;2023-04-25T00:35:10;92709.03;;;9.32;76.14
75219;BME280;63801;49.414;19.474;2023-04-25T00:37:11;92705.53;;;9.28;76.37
75219;BME280;63801;49.414;19.474;2023-04-25T00:39:12;92702.78;;;9.25;76.33
75219;BME280;63801;49.414;19.474;2023-04-25T00:41:12;92704.72;;;9.24;76.39
75219;BME280;63801;49.414;19.474;2023-04-25T00:43:13;92705.47;;;9.25;76.60
75219;BME280;63801;49.414;19.474;2023-04-25T00:45:14;92703.88;;;9.20;76.29
75219;BME280;63801;49.414;19.474;2023-04-25T00:47:15;92705.41;;;9.21;76.32
75219;BME280;63801;49.414;19.474;2023-04-25T00:49:16;92697.34;;;9.21;76.34
75219;BME280;63801;49.414;19.474;2023-04-25T00:51:20;92707.41;;;9.24;76.37
75219;BME280;63801;49.414;19.474;2023-04-25T00:53:25;92697.31;;;9.18;76.27
75219;BME280;63801;49.414;19.474;2023-04-25T00:55:25;92698.44;;;9.17;76.20
75219;BME280;63801;49.414;19.474;2023-04-25T00:57:26;92709.25;;;9.20;76.27
75219;BME280;63801;49.414;19.474;2023-04-25T00:59:27;92698.88;;;9.19;76.00
75219;BME280;63801;49.414;19.474;2023-04-25T01:01:28;92699.25;;;9.21;76.10
75219;BME280;63801;49.414;19.474;2023-04-25T01:03:31;92700.00;;;9.18;75.91
75219;BME280;63801;49.414;19.474;2023-04-25T01:05:32;92704.59;;;9.17;76.07
75219;BME280;63801;49.414;19.474;2023-04-25T01:07:33;92704.97;;;9.16;76.31
75219;BME280;63801;49.414;19.474;2023-04-25T01:09:33;92706.81;;;9.12;75.88
75219;BME280;63801;49.414;19.474;2023-04-25T01:11:34;92706.78;;;9.08;75.97
75219;BME280;63801;49.414;19.474;2023-04-25T01:13:34;92703.28;;;9.04;75.98
75219;BME280;63801;49.414;19.474;2023-04-25T01:15:35;92695.13;;;8.97;76.01
75219;BME280;63801;49.414;19.474;2023-04-25T01:17:36;92697.44;;;8.98;75.85
75219;BME280;63801;49.414;19.474;2023-04-25T01:19:37;92700.84;;;8.95;76.03
75219;BME280;63801;49.414;19.474;2023-04-25T01:21:37;92698.13;;;8.92;75.98
75219;BME280;63801;49.414;19.474;2023-04-25T01:23:39;92698.06;;;8.88;75.82
75219;BME280;63801;49.414;19.474;2023-04-25T01:25:40;92698.38;;;8.83;76.03
75219;BME280;63801;49.414;19.474;2023-04-25T01:27:40;92699.47;;;8.79;75.79
75219;BME280;63801;49.414;19.474;2023-04-25T01:29:41;92692.50;;;8.74;75.87
75219;BME280;63801;49.414;19.474;2023-04-25T01:31:42;92698.59;;;8.71;75.66
75219;BME280;63801;49.414;19.474;2023-04-25T01:33:44;92693.16;;;8.68;75.84
75219;BME280;63801;49.414;19.474;2023-04-25T01:35:44;92698.47;;;8.64;75.80
75219;BME280;63801;49.414;19.474;2023-04-25T01:37:45;92692.22;;;8.56;75.68
75219;BME280;63801;49.414;19.474;2023-04-25T01:39:45;92690.31;;;8.57;75.64
75219;BME280;63801;49.414;19.474;2023-04-25T01:41:46;92691.81;;;8.54;75.89
75219;BME280;63801;49.414;19.474;2023-04-25T01:43:47;92697.91;;;8.51;75.76
75219;BME280;63801;49.414;19.474;2023-04-25T01:45:48;92695.22;;;8.51;75.82
75219;BME280;63801;49.414;19.474;2023-04-25T01:47:49;92701.31;;;8.48;75.77
75219;BME280;63801;49.414;19.474;2023-04-25T01:49:50;92699.00;;;8.47;75.75
75219;BME280;63801;49.414;19.474;2023-04-25T01:51:50;92697.38;;;8.42;75.59
75219;BME280;63801;49.414;19.474;2023-04-25T01:53:51;92704.66;;;8.42;75.73
75219;BME280;63801;49.414;19.474;2023-04-25T01:55:52;92710.41;;;8.40;75.76
75219;BME280;63801;49.414;19.474;2023-04-25T01:57:52;92703.47;;;8.39;75.70
75219;BME280;63801;49.414;19.474;2023-04-25T01:59:59;92705.28;;;8.32;75.73
75219;BME280;63801;49.414;19.474;2023-04-25T02:02:00;92697.13;;;8.28;75.63
75219;BME280;63801;49.414;19.474;2023-04-25T02:04:03;92711.31;;;8.29;75.64
75219;BME280;63801;49.414;19.474;2023-04-25T02:06:04;92706.25;;;8.24;75.73
75219;BME280;63801;49.414;19.474;2023-04-25T02:08:06;92705.47;;;8.23;75.88
75219;BME280;63801;49.414;19.474;2023-04-25T02:10:07;92702.75;;;8.20;75.90
75219;BME280;63801;49.414;19.474;2023-04-25T02:12:09;92712.06;;;8.26;75.76
75219;BME280;63801;49.414;19.474;2023-04-25T02:14:10;92704.78;;;8.26;75.79
75219;BME280;63801;49.414;19.474;2023-04-25T02:16:10;92700.53;;;8.25;75.87
75219;BME280;63801;49.414;19.474;2023-04-25T02:18:11;92712.81;;;8.26;75.81
75219;BME280;63801;49.414;19.474;2023-04-25T02:20:11;92706.69;;;8.26;75.62
75219;BME280;63801;49.414;19.474;2023-04-25T02:22:12;92709.03;;;8.27;75.46
75219;BME280;63801;49.414;19.474;2023-04-25T02:24:13;92703.22;;;8.25;75.78
75219;BME280;63801;49.414;19.474;2023-04-25T02:26:13;92707.81;;;8.25;75.54
75219;BME280;63801;49.414;19.474;2023-04-25T02:28:14;92707.03;;;8.24;75.65
75219;BME280;63801;49.414;19.474;2023-04-25T02:30:14;92702.44;;;8.25;75.65
75219;BME280;63801;49.414;19.474;2023-04-25T02:32:15;92706.94;;;8.17;75.83
75219;BME280;63801;49.414;19.474;2023-04-25T02:34:15;92717.72;;;8.21;75.74
75219;BME280;63801;49.414;19.474;2023-04-25T02:36:16;92709.31;;;8.22;75.82
75219;BME280;63801;49.414;19.474;2023-04-25T02:38:16;92707.75;;;8.21;75.51
75219;BME280;63801;49.414;19.474;2023-04-25T02:40:16;92717.72;;;8.21;75.61
75219;BME280;63801;49.414;19.474;2023-04-25T02:42:17;92702.38;;;8.21;75.56
75219;BME280;63801;49.414;19.474;2023-04-25T02:44:17;92709.66;;;8.21;75.46
75219;BME280;63801;49.414;19.474;2023-04-25T02:46:17;92707.75;;;8.21;75.66
75219;BME280;63801;49.414;19.474;2023-04-25T02:48:18;92702.75;;;8.20;75.52
75219;BME280;63801;49.414;19.474;2023-04-25T02:50:19;92702.34;;;8.18;75.39
75219;BME280;63801;49.414;19.474;2023-04-25T02:52:19;92700.72;;;8.13;75.34
75219;BME280;63801;49.414;19.474;2023-04-25T02:54:19;92706.09;;;8.13;75.47
75219;BME280;63801;49.414;19.474;2023-04-25T02:56:20;92707.66;;;8.14;75.60
75219;BME280;63801;49.414;19.474;2023-04-25T02:58:20;92703.41;;;8.13;75.34
75219;BME280;63801;49.414;19.474;2023-04-25T03:00:21;92701.84;;;8.12;75.59
75219;BME280;63801;49.414;19.474;2023-04-25T03:02:22;92715.69;;;8.14;75.20
75219;BME280;63801;49.414;19.474;2023-04-25T03:04:22;92689.75;;;7.99;75.32
75219;BME280;63801;49.414;19.474;2023-04-25T03:06:23;92712.16;;;8.10;75.32
75219;BME280;63801;49.414;19.474;2023-04-25T03:08:24;92709.84;;;8.08;75.46
75219;BME280;63801;49.414;19.474;2023-04-25T03:10:26;92699.75;;;8.02;75.16
75219;BME280;63801;49.414;19.474;2023-04-25T03:12:26;92708.25;;;8.04;75.27
75219;BME280;63801;49.414;19.474;2023-04-25T03:14:26;92712.03;;;8.03;75.27
75219;BME280;63801;49.414;19.474;2023-04-25T03:16:27;92709.66;;;7.98;75.32
75219;BME280;63801;49.414;19.474;2023-04-25T03:18:27;92711.94;;;7.96;75.15
75219;BME280;63801;49.414;19.474;2023-04-25T03:20:27;92697.91;;;7.83;75.19
75219;BME280;63801;49.414;19.474;2023-04-25T03:22:28;92714.53;;;7.92;75.20
75219;BME280;63801;49.414;19.474;2023-04-25T03:24:28;92717.16;;;7.89;75.04
75219;BME280;63801;49.414;19.474;2023-04-25T03:26:28;92720.13;;;7.84;75.42
75219;BME280;63801;49.414;19.474;2023-04-25T03:28:29;92723.13;;;7.79;75.18
75219;BME280;63801;49.414;19.474;2023-04-25T03:30:29;92722.34;;;7.78;75.07
75219;BME280;63801;49.414;19.474;2023-04-25T03:32:30;92726.88;;;7.74;74.93
75219;BME280;63801;49.414;19.474;2023-04-25T03:34:30;92725.16;;;7.66;74.95
75219;BME280;63801;49.414;19.474;2023-04-25T03:36:30;92721.59;;;7.58;74.88
75219;BME280;63801;49.414;19.474;2023-04-25T03:38:31;92721.09;;;7.53;74.71
75219;BME280;63801;49.414;19.474;2023-04-25T03:40:31;92732.47;;;7.46;74.71
75219;BME280;63801;49.414;19.474;2023-04-25T03:42:31;92730.06;;;7.41;74.87
75219;BME280;63801;49.414;19.474;2023-04-25T03:44:32;92733.00;;;7.36;74.91
75219;BME280;63801;49.414;19.474;2023-04-25T03:46:32;92738.72;;;7.35;74.81
75219;BME280;63801;49.414;19.474;2023-04-25T03:48:33;92737.53;;;7.32;74.93
75219;BME280;63801;49.414;19.474;2023-04-25T03:50:33;92739.03;;;7.30;74.79
75219;BME280;63801;49.414;19.474;2023-04-25T03:52:33;92739.72;;;7.27;75.41
75219;BME280;63801;49.414;19.474;2023-04-25T03:54:34;92746.56;;;7.24;74.89
75219;BME280;63801;49.414;19.474;2023-04-25T03:56:34;92743.81;;;7.20;74.81
75219;BME280;63801;49.414;19.474;2023-04-25T03:58:35;92742.25;;;7.19;75.28
75219;BME280;63801;49.414;19.474;2023-04-25T04:00:35;92746.41;;;7.17;74.97
75219;BME280;63801;49.414;19.474;2023-04-25T04:02:36;92740.19;;;7.13;74.78
75219;BME280;63801;49.414;19.474;2023-04-25T04:04:37;92749.78;;;7.14;74.82
75219;BME280;63801;49.414;19.474;2023-04-25T04:06:37;92739.78;;;7.11;74.61
75219;BME280;63801;49.414;19.474;2023-04-25T04:08:38;92756.97;;;7.10;75.10
75219;BME280;63801;49.414;19.474;2023-04-25T04:10:38;92744.63;;;7.05;74.81
75219;BME280;63801;49.414;19.474;2023-04-25T04:12:39;92753.00;;;7.04;75.10
75219;BME280;63801;49.414;19.474;2023-04-25T04:14:39;92744.41;;;6.95;74.74
75219;BME280;63801;49.414;19.474;2023-04-25T04:16:40;92759.06;;;7.01;74.71
75219;BME280;63801;49.414;19.474;2023-04-25T04:18:40;92765.13;;;6.98;74.83
75219;BME280;63801;49.414;19.474;2023-04-25T04:20:40;92775.50;;;6.99;74.77
75219;BME280;63801;49.414;19.474;2023-04-25T04:22:41;92770.13;;;6.99;74.88
75219;BME280;63801;49.414;19.474;2023-04-25T04:24:41;92759.78;;;6.98;74.60
75219;BME280;63801;49.414;19.474;2023-04-25T04:26:43;92758.22;;;6.97;74.61
75219;BME280;63801;49.414;19.474;2023-04-25T04:28:45;92762.47;;;6.98;74.66
75219;BME280;63801;49.414;19.474;2023-04-25T04:30:45;92764.03;;;6.99;74.72
75219;BME280;63801;49.414;19.474;2023-04-25T04:32:46;92764.78;;;6.99;74.90
75219;BME280;63801;49.414;19.474;2023-04-25T04:34:46;92766.00;;;7.02;74.92
75219;BME280;63801;49.414;19.474;2023-04-25T04:36:47;92763.66;;;7.00;74.55
75219;BME280;63801;49.414;19.474;2023-04-25T04:38:47;92765.13;;;6.98;74.65
75219;BME280;63801;49.414;19.474;2023-04-25T04:40:48;92760.50;;;6.95;74.66
75219;BME280;63801;49.414;19.474;2023-04-25T04:42:48;92764.28;;;6.94;74.73
75219;BME280;63801;49.414;19.474;2023-04-25T04:44:49;92763.06;;;6.91;74.66
75219;BME280;63801;49.414;19.474;2023-04-25T04:46:50;92768.78;;;6.90;74.44
75219;BME280;63801;49.414;19.474;2023-04-25T04:48:50;92770.69;;;6.89;74.64
75219;BME280;63801;49.414;19.474;2023-04-25T04:50:51;92771.81;;;6.88;74.81
75219;BME280;63801;49.414;19.474;2023-04-25T04:52:52;92767.16;;;6.85;74.38
75219;BME280;63801;49.414;19.474;2023-04-25T04:54:52;92770.19;;;6.84;74.40
75219;BME280;63801;49.414;19.474;2023-04-25T04:56:52;92766.31;;;6.81;74.41
75219;BME280;63801;49.414;19.474;2023-04-25T04:58:53;92774.69;;;6.80;74.48
75219;BME280;63801;49.414;19.474;2023-04-25T05:00:53;92776.16;;;6.77;74.44
75219;BME280;63801;49.414;19.474;2023-04-25T05:02:53;92774.53;;;6.72;74.68
75219;BME280;63801;49.414;19.474;2023-04-25T05:06:28;92786.00;;;6.73;74.43
75219;BME280;63801;49.414;19.474;2023-04-25T05:08:29;92783.25;;;6.69;74.70
75219;BME280;63801;49.414;19.474;2023-04-25T05:10:29;92784.34;;;6.68;74.49
75219;BME280;63801;49.414;19.474;2023-04-25T05:12:29;92785.13;;;6.69;74.63
75219;BME280;63801;49.414;19.474;2023-04-25T05:14:30;92776.44;;;6.72;74.73
75219;BME280;63801;49.414;19.474;2023-04-25T05:16:31;92780.22;;;6.71;74.55
75219;BME280;63801;49.414;19.474;2023-04-25T05:18:31;92791.34;;;6.73;74.86
75219;BME280;63801;49.414;19.474;2023-04-25T05:20:31;92785.66;;;6.74;74.54
75219;BME280;63801;49.414;19.474;2023-04-25T05:22:32;92783.06;;;6.78;74.81
75219;BME280;63801;49.414;19.474;2023-04-25T05:24:32;92783.56;;;6.84;74.52
75219;BME280;63801;49.414;19.474;2023-04-25T05:26:32;92782.97;;;6.90;74.91
75219;BME280;63801;49.414;19.474;2023-04-25T05:28:33;92786.13;;;6.96;74.82
75219;BME280;63801;49.414;19.474;2023-04-25T05:30:34;92786.91;;;6.96;74.45
75219;BME280;63801;49.414;19.474;2023-04-25T05:32:34;92786.56;;;6.98;74.52
75219;BME280;63801;49.414;19.474;2023-04-25T05:34:35;92779.31;;;6.98;74.46
75219;BME280;63801;49.414;19.474;2023-04-25T05:36:36;92785.47;;;6.99;74.45
75219;BME280;63801;49.414;19.474;2023-04-25T05:38:37;92793.50;;;6.99;74.65
75219;BME280;63801;49.414;19.474;2023-04-25T05:40:37;92787.44;;;7.02;74.52
75219;BME280;63801;49.414;19.474;2023-04-25T05:42:37;92792.78;;;7.02;74.47
75219;BME280;63801;49.414;19.474;2023-04-25T05:44:38;92785.88;;;7.01;74.70
75219;BME280;63801;49.414;19.474;2023-04-25T05:46:38;92789.41;;;7.05;74.69
75219;BME280;63801;49.414;19.474;2023-04-25T05:48:39;92784.91;;;7.09;74.80
75219;BME280;63801;49.414;19.474;2023-04-25T05:50:39;92791.03;;;7.09;74.64
75219;BME280;63801;49.414;19.474;2023-04-25T05:52:39;92787.56;;;7.09;74.48
75219;BME280;63801;49.414;19.474;2023-04-25T05:54:40;92800.63;;;7.10;74.58
75219;BME280;63801;49.414;19.474;2023-04-25T05:56:40;92793.72;;;7.09;74.34
75219;BME280;63801;49.414;19.474;2023-04-25T05:58:40;92792.59;;;7.10;74.37
75219;BME280;63801;49.414;19.474;2023-04-25T06:00:41;92783.00;;;7.09;74.69
75219;BME280;63801;49.414;19.474;2023-04-25T06:02:42;92793.72;;;7.09;74.61
75219;BME280;63801;49.414;19.474;2023-04-25T06:04:42;92797.19;;;7.10;74.33
75219;BME280;63801;49.414;19.474;2023-04-25T06:06:42;92796.84;;;7.11;74.56
75219;BME280;63801;49.414;19.474;2023-04-25T06:08:43;92799.16;;;7.13;74.69
75219;BME280;63801;49.414;19.474;2023-04-25T06:10:43;92796.91;;;7.15;74.64
75219;BME280;63801;49.414;19.474;2023-04-25T06:12:44;92803.13;;;7.19;74.53
75219;BME280;63801;49.414;19.474;2023-04-25T06:14:44;92802.41;;;7.22;74.64
75219;BME280;63801;49.414;19.474;2023-04-25T06:16:44;92794.38;;;7.22;74.65
75219;BME280;63801;49.414;19.474;2023-04-25T06:18:45;92809.00;;;7.25;74.46
75219;BME280;63801;49.414;19.474;2023-04-25T06:20:45;92798.53;;;7.19;74.25
75219;BME280;63801;49.414;19.474;2023-04-25T06:22:45;92797.91;;;7.26;74.46
75219;BME280;63801;49.414;19.474;2023-04-25T06:24:46;92798.78;;;7.30;74.75
75219;BME280;63801;49.414;19.474;2023-04-25T06:26:46;92800.31;;;7.31;74.25
75219;BME280;63801;49.414;19.474;2023-04-25T06:28:47;92808.00;;;7.33;74.42
75219;BME280;63801;49.414;19.474;2023-04-25T06:30:47;92806.97;;;7.37;74.59
75219;BME280;63801;49.414;19.474;2023-04-25T06:32:48;92811.63;;;7.40;74.61
75219;BME280;63801;49.414;19.474;2023-04-25T06:34:48;92805.19;;;7.45;75.12
75219;BME280;63801;49.414;19.474;2023-04-25T06:36:48;92809.09;;;7.47;74.30
75219;BME280;63801;49.414;19.474;2023-04-25T06:38:49;92813.03;;;7.53;74.40
75219;BME280;63801;49.414;19.474;2023-04-25T06:40:49;92816.16;;;7.55;74.35
75219;BME280;63801;49.414;19.474;2023-04-25T06:42:49;92812.34;;;7.56;74.11
75219;BME280;63801;49.414;19.474;2023-04-25T06:44:50;92817.72;;;7.56;74.13
75219;BME280;63801;49.414;19.474;2023-04-25T06:46:50;92818.19;;;7.62;74.21
75219;BME280;63801;49.414;19.474;2023-04-25T06:48:50;92818.19;;;7.62;74.04
75219;BME280;63801;49.414;19.474;2023-04-25T06:50:51;92816.34;;;7.66;74.05
75219;BME280;63801;49.414;19.474;2023-04-25T06:52:51;92824.00;;;7.64;74.14
75219;BME280;63801;49.414;19.474;2023-04-25T06:54:51;92815.94;;;7.64;74.38
75219;BME280;63801;49.414;19.474;2023-04-25T06:56:52;92811.78;;;7.66;73.77
75219;BME280;63801;49.414;19.474;2023-04-25T06:58:52;92814.13;;;7.68;74.06
75219;BME280;63801;49.414;19.474;2023-04-25T07:00:53;92828.31;;;7.68;74.13
75219;BME280;63801;49.414;19.474;2023-04-25T07:02:53;92820.25;;;7.68;74.02
75219;BME280;63801;49.414;19.474;2023-04-25T07:04:53;92812.22;;;7.68;73.92
75219;BME280;63801;49.414;19.474;2023-04-25T07:06:56;92817.50;;;7.65;73.72
75219;BME280;63801;49.414;19.474;2023-04-25T07:08:56;92824.00;;;7.64;73.97
75219;BME280;63801;49.414;19.474;2023-04-25T07:10:57;92817.13;;;7.66;74.02
75219;BME280;63801;49.414;19.474;2023-04-25T07:12:57;92817.56;;;7.68;73.75
75219;BME280;63801;49.414;19.474;2023-04-25T07:14:57;92827.19;;;7.70;73.68
75219;BME280;63801;49.414;19.474;2023-04-25T07:16:58;92821.38;;;7.67;73.91
75219;BME280;63801;49.414;19.474;2023-04-25T07:18:58;92820.25;;;7.68;73.79
75219;BME280;63801;49.414;19.474;2023-04-25T07:20:59;92820.25;;;7.68;73.76
75219;BME280;63801;49.414;19.474;2023-04-25T07:22:59;92819.53;;;7.72;73.69
75219;BME280;63801;49.414;19.474;2023-04-25T07:25:00;92821.09;;;7.73;73.74
75219;BME280;63801;49.414;19.474;2023-04-25T07:27:00;92815.53;;;7.81;74.11
75219;BME280;63801;49.414;19.474;2023-04-25T07:29:01;92821.88;;;7.92;73.88
75219;BME280;63801;49.414;19.474;2023-04-25T07:31:01;92818.63;;;8.02;73.89
75219;BME280;63801;49.414;19.474;2023-04-25T07:33:02;92813.41;;;8.09;73.79
75219;BME280;63801;49.414;19.474;2023-04-25T07:35:03;92812.75;;;8.16;73.73
75219;BME280;63801;49.414;19.474;2023-04-25T07:37:04;92818.66;;;8.25;73.65
75219;BME280;63801;49.414;19.474;2023-04-25T07:39:04;92812.25;;;8.30;73.54
75219;BME280;63801;49.414;19.474;2023-04-25T07:41:05;92818.94;;;8.39;73.63
75219;BME280;63801;49.414;19.474;2023-04-25T07:43:05;92811.44;;;8.48;73.50
75219;BME280;63801;49.414;19.474;2023-04-25T07:45:06;92814.66;;;8.57;73.49
75219;BME280;63801;49.414;19.474;2023-04-25T07:47:07;92800.16;;;8.62;73.38
75219;BME280;63801;49.414;19.474;2023-04-25T07:49:07;92808.44;;;8.76;73.42
75219;BME280;63801;49.414;19.474;2023-04-25T07:51:07;92806.28;;;8.85;73.38
75219;BME280;63801;49.414;19.474;2023-04-25T07:53:08;92814.09;;;8.94;73.00
75219;BME280;63801;49.414;19.474;2023-04-25T07:55:08;92809.91;;;8.96;72.73
75219;BME280;63801;49.414;19.474;2023-04-25T07:57:09;92807.97;;;8.93;72.39
75219;BME280;63801;49.414;19.474;2023-04-25T07:59:09;92810.66;;;8.93;72.49
75219;BME280;63801;49.414;19.474;2023-04-25T08:01:10;92812.50;;;8.89;72.14
75219;BME280;63801;49.414;19.474;2023-04-25T08:03:11;92814.72;;;8.84;72.45
75219;BME280;63801;49.414;19.474;2023-04-25T08:05:11;92813.88;;;8.80;72.22
75219;BME280;63801;49.414;19.474;2023-04-25T08:07:14;92807.72;;;8.79;72.63
75219;BME280;63801;49.414;19.474;2023-04-25T08:09:15;92816.69;;;8.87;72.77
75219;BME280;63801;49.414;19.474;2023-04-25T08:11:15;92814.53;;;8.96;72.75
75219;BME280;63801;49.414;19.474;2023-04-25T08:13:16;92808.88;;;9.05;72.47
75219;BME280;63801;49.414;19.474;2023-04-25T08:15:16;92813.22;;;9.13;72.33
75219;BME280;63801;49.414;19.474;2023-04-25T08:17:16;92809.09;;;9.19;72.02
75219;BME280;63801;49.414;19.474;2023-04-25T08:19:17;92807.53;;;9.18;71.68
75219;BME280;63801;49.414;19.474;2023-04-25T08:21:17;92814.84;;;9.17;71.64
75219;BME280;63801;49.414;19.474;2023-04-25T08:23:17;92811.84;;;9.22;71.99
75219;BME280;63801;49.414;19.474;2023-04-25T08:25:18;92816.19;;;9.30;71.99
75219;BME280;63801;49.414;19.474;2023-04-25T08:27:18;92815.09;;;9.35;71.50
75219;BME280;63801;49.414;19.474;2023-04-25T08:29:19;92818.91;;;9.34;71.29
75219;BME280;63801;49.414;19.474;2023-04-25T08:31:19;92826.53;;;9.28;71.13
75219;BME280;63801;49.414;19.474;2023-04-25T08:33:19;92820.72;;;9.26;71.33
75219;BME280;63801;49.414;19.474;2023-04-25T08:35:20;92811.50;;;9.24;71.16
75219;BME280;63801;49.414;19.474;2023-04-25T08:37:21;92810.28;;;9.21;71.07
75219;BME280;63801;49.414;19.474;2023-04-25T08:39:21;92822.19;;;9.20;71.15
75219;BME280;63801;49.414;19.474;2023-04-25T08:41:22;92818.66;;;9.16;71.02
75219;BME280;63801;49.414;19.474;2023-04-25T08:43:23;92817.81;;;9.12;71.05
75219;BME280;63801;49.414;19.474;2023-04-25T08:45:27;92822.91;;;9.17;71.11
75219;BME280;63801;49.414;19.474;2023-04-25T08:47:27;92826.50;;;9.25;71.18
75219;BME280;63801;49.414;19.474;2023-04-25T08:49:33;92822.75;;;9.33;71.27
75219;BME280;63801;49.414;19.474;2023-04-25T08:51:36;92832.44;;;9.37;70.72
75219;BME280;63801;49.414;19.474;2023-04-25T08:53:40;92821.59;;;9.34;70.77
75219;BME280;63801;49.414;19.474;2023-04-25T08:55:43;92831.69;;;9.40;70.62
75219;BME280;63801;49.414;19.474;2023-04-25T08:57:44;92835.56;;;9.43;70.54
75219;BME280;63801;49.414;19.474;2023-04-25T08:59:45;92833.00;;;9.50;70.70
75219;BME280;63801;49.414;19.474;2023-04-25T09:01:47;92839.53;;;9.53;70.19
75219;BME280;63801;49.414;19.474;2023-04-25T09:03:47;92838.72;;;9.48;70.07
75219;BME280;63801;49.414;19.474;2023-04-25T09:05:48;92839.84;;;9.47;70.00
75219;BME280;63801;49.414;19.474;2023-04-25T09:07:50;92833.34;;;9.48;70.29
75219;BME280;63801;49.414;19.474;2023-04-25T09:09:50;92838.78;;;9.52;70.28
75219;BME280;63801;49.414;19.474;2023-04-25T09:11:54;92837.28;;;9.55;70.15
75219;BME280;63801;49.414;19.474;2023-04-25T09:14:10;92844.22;;;9.56;69.93
75219;BME280;63801;49.414;19.474;2023-04-25T09:16:11;92839.97;;;9.55;69.93
75219;BME280;63801;49.414;19.474;2023-04-25T09:18:11;92840.38;;;9.57;70.06
75219;BME280;63801;49.414;19.474;2023-04-25T09:20:13;92843.84;;;9.57;69.60
75219;BME280;63801;49.414;19.474;2023-04-25T09:22:13;92837.75;;;9.60;69.77
75219;BME280;63801;49.414;19.474;2023-04-25T09:24:14;92838.63;;;9.68;70.28
75219;BME280;63801;49.414;19.474;2023-04-25T09:26:19;92853.00;;;9.82;70.19
75219;BME280;63801;49.414;19.474;2023-04-25T09:28:32;92841.53;;;9.85;69.83
75219;BME280;63801;49.414;19.474;2023-04-25T09:30:34;92838.22;;;9.96;69.73
75219;BME280;63801;49.414;19.474;2023-04-25T09:32:35;92839.41;;;10.02;69.75
75219;BME280;63801;49.414;19.474;2023-04-25T09:34:39;92851.25;;;10.23;69.67
75219;BME280;63801;49.414;19.474;2023-04-25T09:36:40;92854.44;;;10.32;69.01
75219;BME280;63801;49.414;19.474;2023-04-25T09:38:43;92851.72;;;10.32;68.76
75219;BME280;63801;49.414;19.474;2023-04-25T09:40:45;92846.75;;;10.34;68.90
75219;BME280;63801;49.414;19.474;2023-04-25T09:42:46;92841.78;;;10.36;69.11
75219;BME280;63801;49.414;19.474;2023-04-25T09:44:47;92842.28;;;10.49;68.93
75219;BME280;63801;49.414;19.474;2023-04-25T09:46:49;92835.47;;;10.62;68.53
75219;BME280;63801;49.414;19.474;2023-04-25T09:48:53;92843.28;;;10.71;68.54
75219;BME280;63801;49.414;19.474;2023-04-25T09:53:04;92839.22;;;10.91;67.84
75219;BME280;63801;49.414;19.474;2023-04-25T09:55:07;92837.38;;;11.02;68.03
75219;BME280;63801;49.414;19.474;2023-04-25T09:57:13;92835.16;;;11.11;67.32
75219;BME280;63801;49.414;19.474;2023-04-25T09:59:14;92828.22;;;11.10;67.18
75219;BME280;63801;49.414;19.474;2023-04-25T10:01:16;92833.31;;;11.22;67.14
75219;BME280;63801;49.414;19.474;2023-04-25T10:03:17;92832.91;;;11.20;67.22
75219;BME280;63801;49.414;19.474;2023-04-25T10:05:17;92833.81;;;11.35;67.19
75219;BME280;63801;49.414;19.474;2023-04-25T10:07:19;92826.91;;;11.41;67.12
75219;BME280;63801;49.414;19.474;2023-04-25T10:09:21;92828.53;;;11.56;66.36
75219;BME280;63801;49.414;19.474;2023-04-25T10:11:26;92826.28;;;11.65;66.08
75219;BME280;63801;49.414;19.474;2023-04-25T10:13:29;92823.22;;;11.67;65.35
75219;BME280;63801;49.414;19.474;2023-04-25T10:15:30;92827.81;;;11.63;65.08
75219;BME280;63801;49.414;19.474;2023-04-25T10:17:31;92816.16;;;11.52;65.11
75219;BME280;63801;49.414;19.474;2023-04-25T10:19:33;92820.41;;;11.53;64.67
75219;BME280;63801;49.414;19.474;2023-04-25T10:21:34;92825.03;;;11.49;64.63
75219;BME280;63801;49.414;19.474;2023-04-25T10:23:37;92823.81;;;11.43;64.71
75219;BME280;63801;49.414;19.474;2023-04-25T10:25:38;92826.13;;;11.41;64.93
75219;BME280;63801;49.414;19.474;2023-04-25T10:27:39;92828.41;;;11.35;64.70
75219;BME280;63801;49.414;19.474;2023-04-25T10:29:40;92820.97;;;11.21;64.71
75219;BME280;63801;49.414;19.474;2023-04-25T10:31:46;92822.09;;;11.17;64.72
75219;BME280;63801;49.414;19.474;2023-04-25T10:33:48;92831.31;;;11.12;65.08
75219;BME280;63801;49.414;19.474;2023-04-25T10:35:48;92832.84;;;11.10;65.05
75219;BME280;63801;49.414;19.474;2023-04-25T10:38:08;92824.31;;;11.04;64.99
75219;BME280;63801;49.414;19.474;2023-04-25T10:40:10;92825.78;;;10.95;64.24
75219;BME280;63801;49.414;19.474;2023-04-25T10:42:11;92824.16;;;10.83;64.67
75219;BME280;63801;49.414;19.474;2023-04-25T10:44:11;92805.50;;;10.67;64.85